createdAt,value
2019-03-30T00:00:10.141Z,381.02
2019-03-30T00:05:06.949Z,360.10
2019-03-30T00:07:35.466Z,363.65
2019-03-30T00:10:05.690Z,352.20
2019-03-30T00:12:34.284Z,337.63
2019-03-30T00:15:03.054Z,350.65
2019-03-30T00:17:31.562Z,359.90
2019-03-30T00:20:00.052Z,361.05
2019-03-30T00:22:28.568Z,330.87
2019-03-30T00:24:57.059Z,328.58
2019-03-30T00:27:25.778Z,342.98
2019-03-30T00:29:54.259Z,350.60
2019-03-30T00:32:22.746Z,346.13
2019-03-30T00:34:51.268Z,341.15
2019-03-30T00:37:19.766Z,355.40
2019-03-30T00:39:48.279Z,360.40
2019-03-30T00:42:16.818Z,358.30
2019-03-30T00:44:45.395Z,365.43
2019-03-30T00:47:13.900Z,358.90
2019-03-30T00:49:48.832Z,359.70
2019-03-30T00:52:12.643Z,356.93
2019-03-30T00:54:41.158Z,356.47
2019-03-30T00:57:09.672Z,356.35
2019-03-30T00:59:38.173Z,364.48
2019-03-30T01:02:06.742Z,361.43
2019-03-30T01:04:35.227Z,357.37
2019-03-30T01:07:03.794Z,342.62
2019-03-30T01:09:32.314Z,351.48
2019-03-30T01:12:00.811Z,330.12
2019-03-30T01:14:29.322Z,333.85
2019-03-30T01:16:57.828Z,314.95
2019-03-30T01:19:26.356Z,332.37
2019-03-30T01:21:56.334Z,321.80
2019-03-30T01:24:25.025Z,320.50
2019-03-30T01:26:53.511Z,311.85
2019-03-30T01:29:22.035Z,327.50
2019-03-30T01:31:50.524Z,330.07
2019-03-30T01:34:19.119Z,312.27
2019-03-30T01:36:47.664Z,308.13
2019-03-30T01:39:16.154Z,303.70
2019-03-30T01:41:44.642Z,311.90
2019-03-30T01:44:13.166Z,311.32
2019-03-30T01:46:41.658Z,309.27
2019-03-30T01:49:10.172Z,309.92
2019-03-30T01:51:38.666Z,300.13
2019-03-30T01:54:07.158Z,309.27
2019-03-30T01:56:35.660Z,309.23
2019-03-30T01:59:04.303Z,318.23
2019-03-30T02:01:32.902Z,326.77
2019-03-30T02:04:01.591Z,324.88
2019-03-30T02:06:30.083Z,309.30
2019-03-30T02:08:58.645Z,309.87
2019-03-30T02:11:27.166Z,309.50
2019-03-30T02:13:55.663Z,300.57
2019-03-30T02:16:24.231Z,304.57
2019-03-30T02:18:52.755Z,310.80
2019-03-30T02:21:21.246Z,295.93
2019-03-30T02:23:49.748Z,293.93
2019-03-30T02:26:18.272Z,275.77
2019-03-30T02:28:46.758Z,285.35
2019-03-30T02:31:15.348Z,289.42
2019-03-30T02:33:43.836Z,280.27
2019-03-30T02:36:12.373Z,286.07
2019-03-30T02:38:40.838Z,284.62
2019-03-30T02:41:09.363Z,277.60
2019-03-30T02:43:37.879Z,287.30
2019-03-30T02:46:06.364Z,271.48
2019-03-30T02:48:34.884Z,277.32
2019-03-30T02:51:03.429Z,276.88
2019-03-30T02:53:31.976Z,272.63
2019-03-30T02:56:00.555Z,274.85
2019-03-30T02:58:29.072Z,276.00
2019-03-30T03:00:57.550Z,274.82
2019-03-30T03:03:26.048Z,412.15
2019-03-30T03:05:54.540Z,333.43
2019-03-30T03:08:23.226Z,320.80
2019-03-30T03:10:51.737Z,361.23
2019-03-30T03:13:20.426Z,336.20
2019-03-30T03:15:48.948Z,320.25
2019-03-30T03:18:17.447Z,305.12
2019-03-30T03:20:46.029Z,290.32
2019-03-30T03:23:14.513Z,247.55
2019-03-30T03:25:43.050Z,242.90
2019-03-30T03:28:11.549Z,243.67
2019-03-30T03:30:40.070Z,241.55
2019-03-30T03:33:08.710Z,268.27
2019-03-30T03:35:37.280Z,286.73
2019-03-30T03:38:05.821Z,264.45
2019-03-30T03:40:34.298Z,254.95
2019-03-30T03:43:02.820Z,251.77
2019-03-30T03:45:31.332Z,247.15
2019-03-30T03:47:59.902Z,247.70
2019-03-30T03:50:37.051Z,241.85
2019-03-30T03:53:05.795Z,246.60
2019-03-30T03:55:35.355Z,240.68
2019-03-30T03:58:05.277Z,235.17
2019-03-30T04:00:35.532Z,228.47
2019-03-30T04:03:05.850Z,234.67
2019-03-30T04:05:36.914Z,230.12
2019-03-30T04:08:08.717Z,229.78
2019-03-30T04:10:38.703Z,233.65
2019-03-30T04:13:08.921Z,233.07
2019-03-30T04:15:37.517Z,228.80
2019-03-30T04:18:06.009Z,238.70
2019-03-30T04:20:34.502Z,232.35
2019-03-30T04:23:03.014Z,216.30
2019-03-30T04:25:31.525Z,228.42
2019-03-30T04:28:00.086Z,230.67
2019-03-30T04:30:28.658Z,225.95
2019-03-30T04:32:57.129Z,211.82
2019-03-30T04:35:25.622Z,191.15
2019-03-30T04:37:54.139Z,222.88
2019-03-30T04:40:22.638Z,210.23
2019-03-30T04:42:51.164Z,222.52
2019-03-30T04:45:19.655Z,218.88
2019-03-30T04:47:48.176Z,198.50
2019-03-30T04:50:16.671Z,188.12
2019-03-30T04:52:45.162Z,196.43
2019-03-30T04:55:13.673Z,201.32
2019-03-30T04:57:42.161Z,180.63
2019-03-30T05:00:10.912Z,181.60
2019-03-30T05:02:39.420Z,175.38
2019-03-30T05:05:08.764Z,177.43
2019-03-30T05:07:37.263Z,171.43
2019-03-30T05:10:09.009Z,169.68
2019-03-30T05:15:06.456Z,161.25
2019-03-30T05:17:46.971Z,183.47
2019-03-30T05:20:06.887Z,181.47
2019-03-30T05:22:35.378Z,188.00
2019-03-30T05:25:04.733Z,211.20
2019-03-30T05:27:33.222Z,202.25
2019-03-30T05:30:01.751Z,177.47
2019-03-30T05:32:30.241Z,180.35
2019-03-30T05:34:58.758Z,173.22
2019-03-30T05:37:27.304Z,167.15
2019-03-30T05:39:55.792Z,159.55
2019-03-30T05:42:24.310Z,147.55
2019-03-30T05:44:52.799Z,141.50
2019-03-30T05:47:21.464Z,142.32
2019-03-30T05:49:49.951Z,128.78
2019-03-30T05:52:26.500Z,117.35
2019-03-30T05:54:48.663Z,115.92
2019-03-30T05:57:17.151Z,110.90
2019-03-30T05:59:45.655Z,106.85
2019-03-30T06:02:14.141Z,131.10
2019-03-30T06:04:42.710Z,98.87
2019-03-30T06:07:11.240Z,90.83
2019-03-30T06:09:39.716Z,99.90
2019-03-30T06:12:08.276Z,107.72
2019-03-30T06:14:36.845Z,114.57
2019-03-30T06:17:05.334Z,120.30
2019-03-30T06:19:33.831Z,124.78
2019-03-30T06:22:03.346Z,84.40
2019-03-30T06:24:31.804Z,100.15
2019-03-30T06:27:00.387Z,80.70
2019-03-30T06:29:28.880Z,161.25
2019-03-30T06:31:57.400Z,144.25
2019-03-30T06:34:25.913Z,76.82
2019-03-30T06:36:54.464Z,84.20
2019-03-30T06:39:22.982Z,84.17
2019-03-30T06:41:51.477Z,88.40
2019-03-30T06:44:19.974Z,86.80
2019-03-30T06:46:48.505Z,80.57
2019-03-30T06:49:16.998Z,69.82
2019-03-30T06:51:45.476Z,63.70
2019-03-30T06:54:14.928Z,65.85
2019-03-30T06:56:45.097Z,62.38
2019-03-30T06:59:13.588Z,71.92
2019-03-30T07:01:42.267Z,69.50
2019-03-30T07:04:11.330Z,70.08
2019-03-30T07:06:40.378Z,77.00
2019-03-30T07:09:08.872Z,72.65
2019-03-30T07:11:40.405Z,69.03
2019-03-30T07:14:09.090Z,74.53
2019-03-30T07:16:39.753Z,72.47
2019-03-30T07:19:08.271Z,71.65
2019-03-30T07:21:36.792Z,75.50
2019-03-30T07:24:05.282Z,76.28
2019-03-30T07:26:33.800Z,79.87
2019-03-30T07:29:02.615Z,78.75
2019-03-30T07:31:31.127Z,77.65
2019-03-30T07:33:59.647Z,81.30
2019-03-30T07:36:28.131Z,83.15
2019-03-30T07:38:56.629Z,82.70
2019-03-30T07:41:25.186Z,87.40
2019-03-30T07:43:55.233Z,79.00
2019-03-30T07:46:23.730Z,98.10
2019-03-30T07:48:52.242Z,87.12
2019-03-30T07:51:20.748Z,82.17
2019-03-30T07:53:49.301Z,76.60
2019-03-30T07:56:17.786Z,76.92
2019-03-30T07:58:46.312Z,76.60
2019-03-30T08:01:14.846Z,74.75
2019-03-30T08:03:43.352Z,72.72
2019-03-30T08:06:11.867Z,70.30
2019-03-30T08:08:40.355Z,68.90
2019-03-30T08:11:09.028Z,112.50
2019-03-30T08:13:37.548Z,69.67
2019-03-30T08:16:06.049Z,63.45
2019-03-30T08:18:34.541Z,64.07
2019-03-30T08:21:03.061Z,71.90
2019-03-30T08:23:40.301Z,65.57
2019-03-30T08:26:01.780Z,60.60
2019-03-30T08:28:30.266Z,64.17
2019-03-30T08:30:58.781Z,65.30
2019-03-30T08:33:27.273Z,63.38
2019-03-30T08:35:55.793Z,53.75
2019-03-30T08:38:24.288Z,93.27
2019-03-30T08:40:52.845Z,89.55
2019-03-30T08:43:21.341Z,58.68
2019-03-30T08:45:49.814Z,49.73
2019-03-30T08:48:18.322Z,66.77
2019-03-30T08:50:46.816Z,53.30
2019-03-30T08:53:15.306Z,53.15
2019-03-30T08:55:43.794Z,53.20
2019-03-30T08:58:12.309Z,50.55
2019-03-30T09:00:44.173Z,46.58
2019-03-30T09:03:12.744Z,44.23
2019-03-30T09:05:41.231Z,39.38
2019-03-30T09:08:09.794Z,38.35
2019-03-30T09:10:38.447Z,43.95
2019-03-30T09:13:06.966Z,44.48
2019-03-30T09:15:35.515Z,46.20
2019-03-30T09:18:04.257Z,56.80
2019-03-30T09:20:32.748Z,47.83
2019-03-30T09:23:01.303Z,50.98
2019-03-30T09:25:29.802Z,51.70
2019-03-30T09:27:58.282Z,56.88
2019-03-30T09:30:26.848Z,46.30
2019-03-30T09:32:55.437Z,49.08
2019-03-30T09:35:23.923Z,54.58
2019-03-30T09:37:52.449Z,47.13
2019-03-30T09:40:21.003Z,46.70
2019-03-30T09:42:49.559Z,34.18
2019-03-30T09:45:18.033Z,35.50
2019-03-30T09:47:46.598Z,36.90
2019-03-30T09:50:15.460Z,33.63
2019-03-30T09:52:43.947Z,31.35
2019-03-30T09:55:12.711Z,36.65
2019-03-30T09:57:41.229Z,35.50
2019-03-30T10:00:09.949Z,33.00
2019-03-30T10:02:38.475Z,31.48
2019-03-30T10:05:07.431Z,37.05
2019-03-30T10:07:36.283Z,35.75
2019-03-30T10:10:06.310Z,32.70
2019-03-30T10:12:34.824Z,32.00
2019-03-30T10:15:04.179Z,32.75
2019-03-30T10:17:32.692Z,48.65
2019-03-30T10:20:04.837Z,33.08
2019-03-30T10:22:31.476Z,33.50
2019-03-30T10:24:59.975Z,32.50
2019-03-30T10:27:28.455Z,36.48
2019-03-30T10:29:56.972Z,36.03
2019-03-30T10:32:25.497Z,31.45
2019-03-30T10:34:53.989Z,30.57
2019-03-30T10:37:22.475Z,32.78
2019-03-30T10:39:51.062Z,35.58
2019-03-30T10:42:19.620Z,34.03
2019-03-30T10:44:48.229Z,38.53
2019-03-30T10:47:16.714Z,34.38
2019-03-30T10:49:45.208Z,33.73
2019-03-30T10:52:13.686Z,33.55
2019-03-30T10:54:52.681Z,37.15
2019-03-30T10:57:12.448Z,30.32
2019-03-30T10:59:40.965Z,31.20
2019-03-30T11:02:09.536Z,35.68
2019-03-30T11:04:38.081Z,27.62
2019-03-30T11:07:06.623Z,29.30
2019-03-30T11:09:35.103Z,30.10
2019-03-30T11:12:04.374Z,32.20
2019-03-30T11:14:32.901Z,67.80
2019-03-30T11:17:01.471Z,37.40
2019-03-30T11:19:29.964Z,36.85
2019-03-30T11:21:58.472Z,33.85
2019-03-30T11:24:27.163Z,33.83
2019-03-30T11:26:55.642Z,34.53
2019-03-30T11:29:24.171Z,31.02
2019-03-30T11:31:52.678Z,33.10
2019-03-30T11:34:21.284Z,32.30
2019-03-30T11:36:49.802Z,34.43
2019-03-30T11:39:18.304Z,45.58
2019-03-30T11:41:46.829Z,34.03
2019-03-30T11:44:15.324Z,35.48
2019-03-30T11:46:43.810Z,31.68
2019-03-30T11:49:12.318Z,35.05
2019-03-30T11:51:40.803Z,30.27
2019-03-30T11:54:09.390Z,36.77
2019-03-30T11:56:37.910Z,27.37
2019-03-30T11:59:06.398Z,26.85
2019-03-30T12:01:34.895Z,41.50
2019-03-30T12:04:03.378Z,34.50
2019-03-30T12:06:31.901Z,47.15
2019-03-30T12:09:00.413Z,27.90
2019-03-30T12:11:29.283Z,34.88
2019-03-30T12:13:57.802Z,28.67
2019-03-30T12:16:26.288Z,28.00
2019-03-30T12:18:54.785Z,34.00
2019-03-30T12:21:23.301Z,27.60
2019-03-30T12:23:51.781Z,36.23
2019-03-30T12:26:20.305Z,58.73
2019-03-30T12:28:48.798Z,27.73
2019-03-30T12:31:17.287Z,31.23
2019-03-30T12:33:45.911Z,24.30
2019-03-30T12:36:14.409Z,173.57
2019-03-30T12:38:42.939Z,43.25
2019-03-30T12:41:11.459Z,29.35
2019-03-30T12:43:39.939Z,28.23
2019-03-30T12:46:08.596Z,25.52
2019-03-30T12:48:37.142Z,24.55
2019-03-30T12:51:05.648Z,28.23
2019-03-30T12:53:34.145Z,20.80
2019-03-30T12:56:02.635Z,24.15
2019-03-30T12:58:31.205Z,23.83
2019-03-30T13:00:59.728Z,24.67
2019-03-30T13:03:28.222Z,50.23
2019-03-30T13:05:56.728Z,18.20
2019-03-30T13:08:25.244Z,20.90
2019-03-30T13:10:53.734Z,18.25
2019-03-30T13:13:22.255Z,16.73
2019-03-30T13:15:50.740Z,16.50
2019-03-30T13:18:19.227Z,32.23
2019-03-30T13:20:47.742Z,14.15
2019-03-30T13:23:16.259Z,13.70
2019-03-30T13:25:44.763Z,14.53
2019-03-30T13:28:13.331Z,24.20
2019-03-30T13:30:41.900Z,13.53
2019-03-30T13:33:10.452Z,12.55
2019-03-30T13:35:38.970Z,12.20
2019-03-30T13:38:07.489Z,20.55
2019-03-30T13:40:36.149Z,18.87
2019-03-30T13:43:04.738Z,22.98
2019-03-30T13:45:33.323Z,14.78
2019-03-30T13:48:01.808Z,18.35
2019-03-30T13:50:31.120Z,20.62
2019-03-30T13:52:59.785Z,20.27
2019-03-30T13:55:28.298Z,14.80
2019-03-30T13:57:56.811Z,15.50
2019-03-30T14:00:25.539Z,10.68
2019-03-30T14:02:54.057Z,18.15
2019-03-30T14:05:22.622Z,12.35
2019-03-30T14:07:51.153Z,11.55
2019-03-30T14:10:19.771Z,12.58
2019-03-30T14:12:48.270Z,13.83
2019-03-30T14:15:16.871Z,9.85
2019-03-30T14:17:45.360Z,12.35
2019-03-30T14:20:13.990Z,22.67
2019-03-30T14:22:42.513Z,13.22
2019-03-30T14:25:11.063Z,15.75
2019-03-30T14:27:39.585Z,15.53
2019-03-30T14:30:11.082Z,12.70
2019-03-30T14:32:39.612Z,38.23
2019-03-30T14:35:08.545Z,19.57
2019-03-30T14:37:37.027Z,29.80
2019-03-30T14:40:07.985Z,21.62
2019-03-30T14:42:36.472Z,10.23
2019-03-30T14:45:07.000Z,17.42
2019-03-30T14:47:35.514Z,10.38
2019-03-30T14:50:05.984Z,11.12
2019-03-30T14:52:34.505Z,27.82
2019-03-30T14:55:02.995Z,23.42
2019-03-30T14:57:31.582Z,22.25
2019-03-30T15:00:00.098Z,17.98
2019-03-30T15:02:28.854Z,15.72
2019-03-30T15:05:00.659Z,23.52
2019-03-30T15:07:27.597Z,11.55
2019-03-30T15:09:56.077Z,24.47
2019-03-30T15:12:24.668Z,32.20
2019-03-30T15:14:53.149Z,18.77
2019-03-30T15:17:21.725Z,18.55
2019-03-30T15:19:50.241Z,15.58
2019-03-30T15:22:18.742Z,12.33
2019-03-30T15:24:47.322Z,17.17
2019-03-30T15:27:15.825Z,26.15
2019-03-30T15:29:45.655Z,33.08
2019-03-30T15:32:14.300Z,18.50
2019-03-30T15:34:42.881Z,25.75
2019-03-30T15:37:11.380Z,46.35
2019-03-30T15:39:39.875Z,45.20
2019-03-30T15:42:08.370Z,37.33
2019-03-30T15:44:36.855Z,20.52
2019-03-30T15:47:05.478Z,17.40
2019-03-30T15:49:33.970Z,57.17
2019-03-30T15:52:13.274Z,64.58
2019-03-30T15:54:33.070Z,69.65
2019-03-30T15:57:13.459Z,20.85
2019-03-30T15:59:31.876Z,92.15
2019-03-30T16:02:00.438Z,78.67
2019-03-30T16:04:28.960Z,31.20
2019-03-30T16:06:58.613Z,13.75
2019-03-30T16:09:27.112Z,33.90
2019-03-30T16:11:55.662Z,70.03
2019-03-30T16:14:24.114Z,57.75
2019-03-30T16:16:52.683Z,31.42
2019-03-30T16:19:21.184Z,35.08
2019-03-30T16:21:49.888Z,31.68
2019-03-30T16:24:18.620Z,40.05
2019-03-30T16:26:47.144Z,56.63
2019-03-30T16:29:15.629Z,19.27
2019-03-30T16:31:44.131Z,23.52
2019-03-30T16:34:12.797Z,41.02
2019-03-30T16:36:41.294Z,40.33
2019-03-30T16:39:09.889Z,48.28
2019-03-30T16:41:38.386Z,43.40
2019-03-30T16:44:06.890Z,51.20
2019-03-30T16:46:35.411Z,113.90
2019-03-30T16:49:04.814Z,71.28
2019-03-30T16:51:33.296Z,100.12
2019-03-30T16:54:01.797Z,168.65
2019-03-30T16:56:30.324Z,145.00
2019-03-30T16:58:58.889Z,135.45
2019-03-30T17:01:27.416Z,113.05
2019-03-30T17:03:55.905Z,92.22
2019-03-30T17:06:24.429Z,117.65
2019-03-30T17:08:52.921Z,93.15
2019-03-30T17:11:21.424Z,145.90
2019-03-30T17:13:49.932Z,326.00
2019-03-30T17:16:18.461Z,152.17
2019-03-30T17:18:47.005Z,228.25
2019-03-30T17:21:15.499Z,201.75
2019-03-30T17:23:44.094Z,154.10
2019-03-30T17:26:12.585Z,156.50
2019-03-30T17:28:41.096Z,135.57
2019-03-30T17:31:09.814Z,114.92
2019-03-30T17:33:38.377Z,103.02
2019-03-30T17:36:06.867Z,83.05
2019-03-30T17:38:35.386Z,85.03
2019-03-30T17:41:05.419Z,85.22
2019-03-30T17:43:34.082Z,116.42
2019-03-30T17:46:02.667Z,81.12
2019-03-30T17:48:31.261Z,68.30
2019-03-30T17:50:59.751Z,79.65
2019-03-30T17:53:28.237Z,75.25
2019-03-30T17:55:56.743Z,71.17
2019-03-30T17:58:25.235Z,69.45
2019-03-30T18:00:53.755Z,124.70
2019-03-30T18:03:23.222Z,101.50
2019-03-30T18:05:51.728Z,105.78
2019-03-30T18:08:20.800Z,104.85
2019-03-30T18:10:49.314Z,140.92
2019-03-30T18:13:17.845Z,133.85
2019-03-30T18:15:46.372Z,153.68
2019-03-30T18:18:14.862Z,144.68
2019-03-30T18:20:43.387Z,123.02
2019-03-30T18:23:11.879Z,132.97
2019-03-30T18:25:40.410Z,130.60
2019-03-30T18:28:08.912Z,156.05
2019-03-30T18:30:39.640Z,157.07
2019-03-30T18:33:08.904Z,146.15
2019-03-30T18:35:39.499Z,149.40
2019-03-30T18:38:08.266Z,112.68
2019-03-30T18:40:36.828Z,111.32
2019-03-30T18:43:05.356Z,132.90
2019-03-30T18:45:33.913Z,146.87
2019-03-30T18:48:12.699Z,138.30
2019-03-30T18:50:43.249Z,139.65
2019-03-30T18:53:12.208Z,163.03
2019-03-30T18:55:40.700Z,164.62
2019-03-30T18:58:09.229Z,159.40
2019-03-30T19:00:37.812Z,159.80
2019-03-30T19:03:06.576Z,165.25
2019-03-30T19:05:35.445Z,158.05
2019-03-30T19:08:04.593Z,133.40
2019-03-30T19:10:33.175Z,133.55
2019-03-30T19:13:01.815Z,206.60
2019-03-30T19:15:30.322Z,205.52
2019-03-30T19:17:58.837Z,192.72
2019-03-30T19:20:27.363Z,183.82
2019-03-30T19:22:55.896Z,176.47
2019-03-30T19:25:24.392Z,159.82
2019-03-30T19:27:52.936Z,152.75
2019-03-30T19:30:21.559Z,145.92
2019-03-30T19:32:50.083Z,203.30
2019-03-30T19:35:18.654Z,181.97
2019-03-30T19:37:47.155Z,152.30
2019-03-30T19:40:15.715Z,142.13
2019-03-30T19:42:44.220Z,144.07
2019-03-30T19:45:13.019Z,126.53
2019-03-30T19:47:41.502Z,141.70
2019-03-30T19:50:10.723Z,123.22
2019-03-30T19:52:40.483Z,127.10
2019-03-30T19:55:09.359Z,125.25
2019-03-30T19:57:37.948Z,61.55
2019-03-30T20:00:14.436Z,48.00
2019-03-30T20:02:42.989Z,49.30
2019-03-30T20:05:11.914Z,66.75
2019-03-30T20:07:40.412Z,89.80
2019-03-30T20:10:09.468Z,87.02
2019-03-30T20:12:38.830Z,89.13
2019-03-30T20:15:08.686Z,82.02
2019-03-30T20:17:37.212Z,81.50
2019-03-30T20:20:07.162Z,108.70
2019-03-30T20:22:35.679Z,128.87
2019-03-30T20:25:06.610Z,126.97
2019-03-30T20:27:35.108Z,121.75
2019-03-30T20:30:05.688Z,114.65
2019-03-30T20:32:34.174Z,159.70
2019-03-30T20:35:02.773Z,152.15
2019-03-30T20:37:31.268Z,149.27
2019-03-30T20:39:59.786Z,116.42
2019-03-30T20:42:28.282Z,249.95
2019-03-30T20:44:56.808Z,268.10
2019-03-30T20:47:25.336Z,395.85
2019-03-30T20:49:53.826Z,414.82
2019-03-30T20:52:22.334Z,238.28
2019-03-30T20:54:50.827Z,185.97
2019-03-30T20:57:19.324Z,159.27
2019-03-30T20:59:47.847Z,105.70
2019-03-30T21:02:16.408Z,125.10
2019-03-30T21:04:44.929Z,132.12
2019-03-30T21:07:15.062Z,130.27
2019-03-30T21:09:43.567Z,130.55
2019-03-30T21:12:12.064Z,105.70
2019-03-30T21:14:40.573Z,101.50
2019-03-30T21:17:09.074Z,91.08
2019-03-30T21:19:37.594Z,75.45
2019-03-30T21:22:06.091Z,78.57
2019-03-30T21:24:34.614Z,71.45
2019-03-30T21:27:03.098Z,69.55
2019-03-30T21:29:31.597Z,70.05
2019-03-30T21:32:00.092Z,71.42
2019-03-30T21:34:28.615Z,69.03
2019-03-30T21:36:57.216Z,67.95
2019-03-30T21:39:25.700Z,69.05
2019-03-30T21:41:54.220Z,68.00
2019-03-30T21:44:22.851Z,68.20
2019-03-30T21:46:51.382Z,64.10
2019-03-30T21:49:19.863Z,56.85
2019-03-30T21:51:48.384Z,58.78
2019-03-30T21:54:16.876Z,56.28
2019-03-30T21:56:45.400Z,60.15
2019-03-30T21:59:13.918Z,58.98
2019-03-30T22:01:43.439Z,69.82
2019-03-30T22:04:11.988Z,81.28
2019-03-30T22:06:40.719Z,87.53
2019-03-30T22:09:09.448Z,78.35
2019-03-30T22:11:38.019Z,73.67
2019-03-30T22:14:08.601Z,75.45
2019-03-30T22:16:37.117Z,80.95
2019-03-30T22:19:05.686Z,83.70
2019-03-30T22:21:34.246Z,78.47
2019-03-30T22:24:02.729Z,68.00
2019-03-30T22:26:31.248Z,87.42
2019-03-30T22:28:59.739Z,106.65
2019-03-30T22:31:28.264Z,196.87
2019-03-30T22:33:56.752Z,77.70
2019-03-30T22:36:25.272Z,81.20
2019-03-30T22:38:53.773Z,68.28
2019-03-30T22:41:22.316Z,69.00
2019-03-30T22:43:50.788Z,76.28
2019-03-30T22:46:19.369Z,73.97
2019-03-30T22:48:47.857Z,89.90
2019-03-30T22:51:16.381Z,75.85
2019-03-30T22:53:44.866Z,89.85
2019-03-30T22:56:13.389Z,68.45
2019-03-30T22:58:41.909Z,85.15
2019-03-30T23:01:12.105Z,71.00
2019-03-30T23:03:40.764Z,130.65
2019-03-30T23:06:09.467Z,74.30
2019-03-30T23:08:37.941Z,66.57
2019-03-30T23:11:06.445Z,72.35
2019-03-30T23:13:34.923Z,68.95
2019-03-30T23:16:03.422Z,83.40
2019-03-30T23:18:31.905Z,69.00
2019-03-30T23:21:00.389Z,65.35
2019-03-30T23:23:28.900Z,72.67
2019-03-30T23:25:57.386Z,74.67
2019-03-30T23:28:25.863Z,78.50
2019-03-30T23:30:54.907Z,82.45
2019-03-30T23:33:24.423Z,69.07
2019-03-30T23:35:52.996Z,64.53
2019-03-30T23:38:21.480Z,68.55
2019-03-30T23:40:49.957Z,64.45
2019-03-30T23:43:18.475Z,62.17
2019-03-30T23:45:46.967Z,59.65
2019-03-30T23:48:15.443Z,64.20
2019-03-30T23:50:44.219Z,65.70
2019-03-30T23:53:12.689Z,63.98
2019-03-30T23:55:41.182Z,57.13
2019-03-30T23:58:09.669Z,54.42
